PWSweather.com
Personal Weather Stations
Station Observations
KB2SBX
Sugarloaf, Sugarloaf, PA 18249

SugarloafSugarloaf, PA 18249

Lat: 41.0126685, Lon: -76.1082041

Elevation: 1030

Station Type: WS-2080

http://sugarloafpaweather.webng.com/weather.shtml

High Low Average
Temperature 41.9°F5.5°C 33.3°F0.7°C 37.3°F2.9°C
Dew Point 28.5°F-1.9°C 19.0°F-7.2°C 23.7°F-4.6°C
Winds 3.4 mph 5.5 kmh 0.1 mph 0.2 kmh 1.0 mph WSW1.6 kmh WSW
Wind Gusts 11.4 mph18.3 kmh 1.6 mph2.6 kmh 6.0 mph9.7 kmh
Humidity 69% 50% 58%
Pressure 30.12 in1020.0 mb 29.94 in1013.9 mb -
Precipitation 0.00 in0.0 mm - -
Hour Temp Dew Point Humidity Winds Wind Gusts Pressure Precip Precip Rate Daily Precip Total
12:00 AM 33.4°F0.8°C 19.0°F-7.2°C 55% 0.1 mph NNW0.2 kmh NNW 1.6 mph2.6 kmh 29.95 in1014.2 mb 0.00 in0.0 mm 0.00 in/hr0.0 mm/hr 0.00 in0.0 mm
12:15 AM 33.6°F0.9°C 19.2°F-7.1°C 55% 0.1 mph N0.2 kmh N 1.6 mph2.6 kmh 29.95 in1014.2 mb 0.00 in0.0 mm 0.00 in/hr0.0 mm/hr 0.00 in0.0 mm
12:30 AM 34.3°F1.3°C 19.4°F-7.0°C 54% 0.4 mph NE0.6 kmh NE 3.8 mph6.1 kmh 29.95 in1014.2 mb 0.00 in0.0 mm 0.00 in/hr0.0 mm/hr 0.00 in0.0 mm
12:45 AM 34.9°F1.6°C 19.9°F-6.7°C 54% 0.2 mph SSE0.3 kmh SSE 1.6 mph2.6 kmh 29.94 in1013.9 mb 0.00 in0.0 mm 0.00 in/hr0.0 mm/hr 0.00 in0.0 mm
01:00 AM 35.8°F2.1°C 19.9°F-6.7°C 52% 0.8 mph NNW1.3 kmh NNW 3.8 mph6.1 kmh 29.95 in1014.2 mb 0.00 in0.0 mm 0.00 in/hr0.0 mm/hr 0.00 in0.0 mm
01:15 AM 36.5°F2.5°C 20.6°F-6.3°C 52% 0.8 mph W1.3 kmh W 4.5 mph7.2 kmh 29.94 in1013.9 mb 0.00 in0.0 mm 0.00 in/hr0.0 mm/hr 0.00 in0.0 mm
01:30 AM 36.9°F2.7°C 20.9°F-6.2°C 52% 0.6 mph N1.0 kmh N 3.8 mph6.1 kmh 29.94 in1013.9 mb 0.00 in0.0 mm 0.00 in/hr0.0 mm/hr 0.00 in0.0 mm
01:45 AM 37.0°F2.8°C 20.6°F-6.3°C 51% 1.4 mph NW2.3 kmh NW 8.3 mph13.4 kmh 29.94 in1013.9 mb 0.00 in0.0 mm 0.00 in/hr0.0 mm/hr 0.00 in0.0 mm
02:00 AM 36.9°F2.7°C 20.9°F-6.2°C 52% 1.3 mph NW2.1 kmh NW 4.5 mph7.2 kmh 29.94 in1013.9 mb 0.00 in0.0 mm 0.00 in/hr0.0 mm/hr 0.00 in0.0 mm
02:15 AM 36.5°F2.5°C 20.6°F-6.3°C 52% 0.2 mph N0.3 kmh N 3.1 mph5.0 kmh 29.95 in1014.2 mb 0.00 in0.0 mm 0.00 in/hr0.0 mm/hr 0.00 in0.0 mm
02:30 AM 36.0°F2.2°C 20.5°F-6.4°C 53% 0.4 mph S0.6 kmh S 3.8 mph6.1 kmh 29.95 in1014.2 mb 0.00 in0.0 mm 0.00 in/hr0.0 mm/hr 0.00 in0.0 mm
02:45 AM 35.4°F1.9°C 20.5°F-6.4°C 54% 0.5 mph S0.8 kmh S 3.1 mph5.0 kmh 29.95 in1014.2 mb 0.00 in0.0 mm 0.00 in/hr0.0 mm/hr 0.00 in0.0 mm
03:00 AM 34.5°F1.4°C 20.0°F-6.7°C 55% 0.5 mph S0.8 kmh S 3.8 mph6.1 kmh 29.96 in1014.6 mb 0.00 in0.0 mm 0.00 in/hr0.0 mm/hr 0.00 in0.0 mm
03:15 AM 34.2°F1.2°C 20.5°F-6.4°C 57% 0.1 mph SE0.2 kmh SE 3.1 mph5.0 kmh 29.96 in1014.6 mb 0.00 in0.0 mm 0.00 in/hr0.0 mm/hr 0.00 in0.0 mm
03:30 AM 33.8°F1.0°C 20.6°F-6.3°C 58% 0.3 mph NE0.5 kmh NE 3.8 mph6.1 kmh 29.96 in1014.6 mb 0.00 in0.0 mm 0.00 in/hr0.0 mm/hr 0.00 in0.0 mm
03:45 AM 33.6°F0.9°C 21.6°F-5.8°C 61% 0.4 mph N0.6 kmh N 5.4 mph8.7 kmh 29.96 in1014.6 mb 0.00 in0.0 mm 0.00 in/hr0.0 mm/hr 0.00 in0.0 mm
04:00 AM 34.7°F1.5°C 22.3°F-5.4°C 60% 0.8 mph NNW1.3 kmh NNW 3.8 mph6.1 kmh 29.96 in1014.6 mb 0.00 in0.0 mm 0.00 in/hr0.0 mm/hr 0.00 in0.0 mm
04:15 AM 34.7°F1.5°C 22.3°F-5.4°C 60% 0.7 mph N1.1 kmh N 3.8 mph6.1 kmh 29.96 in1014.6 mb 0.00 in0.0 mm 0.00 in/hr0.0 mm/hr 0.00 in0.0 mm
04:30 AM 34.7°F1.5°C 22.3°F-5.4°C 60% 1.5 mph WNW2.4 kmh WNW 5.4 mph8.7 kmh 29.96 in1014.6 mb 0.00 in0.0 mm 0.00 in/hr0.0 mm/hr 0.00 in0.0 mm
04:45 AM 34.3°F1.3°C 21.9°F-5.6°C 60% 0.6 mph WNW1.0 kmh WNW 5.4 mph8.7 kmh 29.97 in1014.9 mb 0.00 in0.0 mm 0.00 in/hr0.0 mm/hr 0.00 in0.0 mm
05:00 AM 33.8°F1.0°C 21.8°F-5.7°C 61% 0.4 mph WNW0.6 kmh WNW 3.1 mph5.0 kmh 29.98 in1015.2 mb 0.00 in0.0 mm 0.00 in/hr0.0 mm/hr 0.00 in0.0 mm
05:15 AM 33.4°F0.8°C 22.2°F-5.4°C 63% 0.5 mph NW0.8 kmh NW 3.1 mph5.0 kmh 29.99 in1015.6 mb 0.00 in0.0 mm 0.00 in/hr0.0 mm/hr 0.00 in0.0 mm
05:30 AM 33.8°F1.0°C 22.9°F-5.1°C 64% 1.2 mph WSW1.9 kmh WSW 5.4 mph8.7 kmh 29.98 in1015.2 mb 0.00 in0.0 mm 0.00 in/hr0.0 mm/hr 0.00 in0.0 mm
05:45 AM 34.5°F1.4°C 22.9°F-5.1°C 62% 2.1 mph SW3.4 kmh SW 7.6 mph12.2 kmh 29.99 in1015.6 mb 0.00 in0.0 mm 0.00 in/hr0.0 mm/hr 0.00 in0.0 mm
06:00 AM 34.5°F1.4°C 22.9°F-5.1°C 62% 0.9 mph SSW1.4 kmh SSW 4.5 mph7.2 kmh 29.99 in1015.6 mb 0.00 in0.0 mm 0.00 in/hr0.0 mm/hr 0.00 in0.0 mm
06:15 AM 34.5°F1.4°C 23.2°F-4.9°C 63% 1.4 mph SW2.3 kmh SW 6.0 mph9.7 kmh 29.99 in1015.6 mb 0.00 in0.0 mm 0.00 in/hr0.0 mm/hr 0.00 in0.0 mm
06:30 AM 34.3°F1.3°C 22.7°F-5.2°C 62% 0.8 mph WSW1.3 kmh WSW 11.4 mph18.3 kmh 30.00 in1015.9 mb 0.00 in0.0 mm 0.00 in/hr0.0 mm/hr 0.00 in0.0 mm
06:45 AM 34.3°F1.3°C 23.1°F-4.9°C 63% 1.0 mph NW1.6 kmh NW 3.8 mph6.1 kmh 29.99 in1015.6 mb 0.00 in0.0 mm 0.00 in/hr0.0 mm/hr 0.00 in0.0 mm
07:00 AM 34.0°F1.1°C 22.7°F-5.2°C 63% 0.6 mph N1.0 kmh N 3.1 mph5.0 kmh 30.00 in1015.9 mb 0.00 in0.0 mm 0.00 in/hr0.0 mm/hr 0.00 in0.0 mm
07:15 AM 33.6°F0.9°C 23.1°F-4.9°C 65% 0.3 mph NNE0.5 kmh NNE 3.1 mph5.0 kmh 29.99 in1015.6 mb 0.00 in0.0 mm 0.00 in/hr0.0 mm/hr 0.00 in0.0 mm
07:30 AM 33.3°F0.7°C 23.5°F-4.7°C 67% 0.8 mph NNW1.3 kmh NNW 5.4 mph8.7 kmh 30.00 in1015.9 mb 0.00 in0.0 mm 0.00 in/hr0.0 mm/hr 0.00 in0.0 mm
07:45 AM 33.4°F0.8°C 24.4°F-4.2°C 69% 1.1 mph WNW1.8 kmh WNW 6.9 mph11.1 kmh 30.00 in1015.9 mb 0.00 in0.0 mm 0.00 in/hr0.0 mm/hr 0.00 in0.0 mm
08:00 AM 34.0°F1.1°C 24.6°F-4.1°C 68% 0.6 mph WSW1.0 kmh WSW 3.8 mph6.1 kmh 30.02 in1016.6 mb 0.00 in0.0 mm 0.00 in/hr0.0 mm/hr 0.00 in0.0 mm
08:15 AM 34.9°F1.6°C 25.8°F-3.4°C 69% 1.5 mph WSW2.4 kmh WSW 6.0 mph9.7 kmh 30.03 in1016.9 mb 0.00 in0.0 mm 0.00 in/hr0.0 mm/hr 0.00 in0.0 mm
08:30 AM 35.6°F2.0°C 25.0°F-3.9°C 65% 2.2 mph W3.5 kmh W 7.6 mph12.2 kmh 30.03 in1016.9 mb 0.00 in0.0 mm 0.00 in/hr0.0 mm/hr 0.00 in0.0 mm
08:45 AM 36.1°F2.3°C 25.5°F-3.6°C 65% 1.8 mph WSW2.9 kmh WSW 9.2 mph14.8 kmh 30.03 in1016.9 mb 0.00 in0.0 mm 0.00 in/hr0.0 mm/hr 0.00 in0.0 mm
09:00 AM 36.5°F2.5°C 25.5°F-3.6°C 64% 1.5 mph WNW2.4 kmh WNW 7.6 mph12.2 kmh 30.04 in1017.3 mb 0.00 in0.0 mm 0.00 in/hr0.0 mm/hr 0.00 in0.0 mm
09:15 AM 37.0°F2.8°C 25.6°F-3.6°C 63% 1.7 mph NNW2.7 kmh NNW 4.5 mph7.2 kmh 30.04 in1017.3 mb 0.00 in0.0 mm 0.00 in/hr0.0 mm/hr 0.00 in0.0 mm
09:30 AM 37.4°F3.0°C 27.1°F-2.7°C 66% 2.3 mph NW3.7 kmh NW 5.4 mph8.7 kmh 30.04 in1017.3 mb 0.00 in0.0 mm 0.00 in/hr0.0 mm/hr 0.00 in0.0 mm
09:45 AM 37.4°F3.0°C 27.1°F-2.7°C 66% 2.5 mph NNW4.0 kmh NNW 10.7 mph17.2 kmh 30.06 in1017.9 mb 0.00 in0.0 mm 0.00 in/hr0.0 mm/hr 0.00 in0.0 mm
10:00 AM 37.8°F3.2°C 27.4°F-2.6°C 66% 3.4 mph NW5.5 kmh NW 9.2 mph14.8 kmh 30.06 in1017.9 mb 0.00 in0.0 mm 0.00 in/hr0.0 mm/hr 0.00 in0.0 mm
10:15 AM 37.8°F3.2°C 27.1°F-2.7°C 65% 3.1 mph WNW5.0 kmh WNW 9.8 mph15.8 kmh 30.07 in1018.3 mb 0.00 in0.0 mm 0.00 in/hr0.0 mm/hr 0.00 in0.0 mm
10:30 AM 38.3°F3.5°C 28.0°F-2.2°C 66% 2.4 mph WNW3.9 kmh WNW 9.8 mph15.8 kmh 30.06 in1017.9 mb 0.00 in0.0 mm 0.00 in/hr0.0 mm/hr 0.00 in0.0 mm
10:45 AM 39.2°F4.0°C 27.7°F-2.4°C 63% 1.9 mph WNW3.1 kmh WNW 6.0 mph9.7 kmh 30.07 in1018.3 mb 0.00 in0.0 mm 0.00 in/hr0.0 mm/hr 0.00 in0.0 mm
11:00 AM 40.1°F4.5°C 28.5°F-1.9°C 63% 1.8 mph W2.9 kmh W 7.6 mph12.2 kmh 30.06 in1017.9 mb 0.00 in0.0 mm 0.00 in/hr0.0 mm/hr 0.00 in0.0 mm
11:15 AM 40.3°F4.6°C 28.3°F-2.1°C 62% 2.5 mph WSW4.0 kmh WSW 6.9 mph11.1 kmh 30.07 in1018.3 mb 0.00 in0.0 mm 0.00 in/hr0.0 mm/hr 0.00 in0.0 mm
11:30 AM 40.5°F4.7°C 28.1°F-2.2°C 61% 2.3 mph WSW3.7 kmh WSW 10.7 mph17.2 kmh 30.07 in1018.3 mb 0.00 in0.0 mm 0.00 in/hr0.0 mm/hr 0.00 in0.0 mm
11:45 AM 41.2°F5.1°C 28.0°F-2.2°C 59% 2.0 mph W3.2 kmh W 8.3 mph13.4 kmh 30.06 in1017.9 mb 0.00 in0.0 mm 0.00 in/hr0.0 mm/hr 0.00 in0.0 mm
12:00 PM 40.6°F4.8°C 26.6°F-3.0°C 57% 2.9 mph W4.7 kmh W 6.0 mph9.7 kmh 30.06 in1017.9 mb 0.00 in0.0 mm 0.00 in/hr0.0 mm/hr 0.00 in0.0 mm
12:15 PM 40.8°F4.9°C 26.8°F-2.9°C 57% 1.5 mph W2.4 kmh W 6.0 mph9.7 kmh 30.05 in1017.6 mb 0.00 in0.0 mm 0.00 in/hr0.0 mm/hr 0.00 in0.0 mm
12:30 PM 40.6°F4.8°C 26.6°F-3.0°C 57% 1.6 mph N2.6 kmh N 8.3 mph13.4 kmh 30.05 in1017.6 mb 0.00 in0.0 mm 0.00 in/hr0.0 mm/hr 0.00 in0.0 mm
12:45 PM 40.6°F4.8°C 26.6°F-3.0°C 57% 2.5 mph NW4.0 kmh NW 6.0 mph9.7 kmh 30.05 in1017.6 mb 0.00 in0.0 mm 0.00 in/hr0.0 mm/hr 0.00 in0.0 mm
01:00 PM 41.4°F5.2°C 26.0°F-3.3°C 54% 2.0 mph N3.2 kmh N 6.0 mph9.7 kmh 30.05 in1017.6 mb 0.00 in0.0 mm 0.00 in/hr0.0 mm/hr 0.00 in0.0 mm
01:15 PM 41.9°F5.5°C 25.1°F-3.8°C 51% 2.2 mph NW3.5 kmh NW 6.9 mph11.1 kmh 30.04 in1017.3 mb 0.00 in0.0 mm 0.00 in/hr0.0 mm/hr 0.00 in0.0 mm
01:30 PM 41.7°F5.4°C 24.5°F-4.2°C 50% 2.3 mph WNW3.7 kmh WNW 6.9 mph11.1 kmh 30.04 in1017.3 mb 0.00 in0.0 mm 0.00 in/hr0.0 mm/hr 0.00 in0.0 mm
01:45 PM 41.7°F5.4°C 24.5°F-4.2°C 50% 3.0 mph N4.8 kmh N 6.9 mph11.1 kmh 30.04 in1017.3 mb 0.00 in0.0 mm 0.00 in/hr0.0 mm/hr 0.00 in0.0 mm
02:00 PM 41.2°F5.1°C 24.0°F-4.4°C 50% 3.2 mph NE5.1 kmh NE 10.7 mph17.2 kmh 30.05 in1017.6 mb 0.00 in0.0 mm 0.00 in/hr0.0 mm/hr 0.00 in0.0 mm
02:15 PM 41.0°F5.0°C 24.3°F-4.3°C 51% 2.3 mph NNW3.7 kmh NNW 9.2 mph14.8 kmh 30.05 in1017.6 mb 0.00 in0.0 mm 0.00 in/hr0.0 mm/hr 0.00 in0.0 mm
02:30 PM 41.0°F5.0°C 24.3°F-4.3°C 51% 2.8 mph NNE4.5 kmh NNE 7.6 mph12.2 kmh 30.05 in1017.6 mb 0.00 in0.0 mm 0.00 in/hr0.0 mm/hr 0.00 in0.0 mm
02:45 PM 41.2°F5.1°C 24.4°F-4.2°C 51% 2.0 mph NW3.2 kmh NW 5.4 mph8.7 kmh 30.06 in1017.9 mb 0.00 in0.0 mm 0.00 in/hr0.0 mm/hr 0.00 in0.0 mm
03:00 PM 40.6°F4.8°C 24.4°F-4.2°C 52% 2.4 mph WSW3.9 kmh WSW 9.2 mph14.8 kmh 30.07 in1018.3 mb 0.00 in0.0 mm 0.00 in/hr0.0 mm/hr 0.00 in0.0 mm
03:15 PM 40.6°F4.8°C 24.9°F-3.9°C 53% 2.5 mph WSW4.0 kmh WSW 9.2 mph14.8 kmh 30.07 in1018.3 mb 0.00 in0.0 mm 0.00 in/hr0.0 mm/hr 0.00 in0.0 mm
03:30 PM 40.1°F4.5°C 24.4°F-4.2°C 53% 1.9 mph N3.1 kmh N 6.9 mph11.1 kmh 30.07 in1018.3 mb 0.00 in0.0 mm 0.00 in/hr0.0 mm/hr 0.00 in0.0 mm
03:45 PM 40.1°F4.5°C 24.4°F-4.2°C 53% 1.5 mph NNW2.4 kmh NNW 4.5 mph7.2 kmh 30.07 in1018.3 mb 0.00 in0.0 mm 0.00 in/hr0.0 mm/hr 0.00 in0.0 mm
04:00 PM 39.9°F4.4°C 24.2°F-4.3°C 53% 2.2 mph NW3.5 kmh NW 8.3 mph13.4 kmh 30.08 in1018.6 mb 0.00 in0.0 mm 0.00 in/hr0.0 mm/hr 0.00 in0.0 mm
04:15 PM 39.9°F4.4°C 23.7°F-4.6°C 52% 2.6 mph NW4.2 kmh NW 6.0 mph9.7 kmh 30.08 in1018.6 mb 0.00 in0.0 mm 0.00 in/hr0.0 mm/hr 0.00 in0.0 mm
04:30 PM 39.7°F4.3°C 24.0°F-4.4°C 53% 2.4 mph NW3.9 kmh NW 6.9 mph11.1 kmh 30.09 in1019.0 mb 0.00 in0.0 mm 0.00 in/hr0.0 mm/hr 0.00 in0.0 mm
04:45 PM 39.2°F4.0°C 23.1°F-4.9°C 52% 2.3 mph WNW3.7 kmh WNW 6.9 mph11.1 kmh 30.09 in1019.0 mb 0.00 in0.0 mm 0.00 in/hr0.0 mm/hr 0.00 in0.0 mm
05:00 PM 39.0°F3.9°C 23.4°F-4.8°C 53% 1.7 mph N2.7 kmh N 5.4 mph8.7 kmh 30.09 in1019.0 mb 0.00 in0.0 mm 0.00 in/hr0.0 mm/hr 0.00 in0.0 mm
05:15 PM 38.8°F3.8°C 23.2°F-4.9°C 53% 1.1 mph NW1.8 kmh NW 7.6 mph12.2 kmh 30.09 in1019.0 mb 0.00 in0.0 mm 0.00 in/hr0.0 mm/hr 0.00 in0.0 mm
05:30 PM 38.7°F3.7°C 23.0°F-5.0°C 53% 1.6 mph NNW2.6 kmh NNW 5.4 mph8.7 kmh 30.10 in1019.3 mb 0.00 in0.0 mm 0.00 in/hr0.0 mm/hr 0.00 in0.0 mm
05:45 PM 38.5°F3.6°C 23.3°F-4.8°C 54% 0.5 mph SW0.8 kmh SW 3.1 mph5.0 kmh 30.10 in1019.3 mb 0.00 in0.0 mm 0.00 in/hr0.0 mm/hr 0.00 in0.0 mm
06:00 PM 38.1°F3.4°C 23.4°F-4.8°C 55% 1.3 mph WSW2.1 kmh WSW 5.4 mph8.7 kmh 30.11 in1019.6 mb 0.00 in0.0 mm 0.00 in/hr0.0 mm/hr 0.00 in0.0 mm
06:15 PM 37.9°F3.3°C 23.7°F-4.6°C 56% 0.5 mph W0.8 kmh W 3.8 mph6.1 kmh 30.11 in1019.6 mb 0.00 in0.0 mm 0.00 in/hr0.0 mm/hr 0.00 in0.0 mm
06:30 PM 37.8°F3.2°C 23.9°F-4.5°C 57% 0.6 mph NNE1.0 kmh NNE 6.0 mph9.7 kmh 30.12 in1020.0 mb 0.00 in0.0 mm 0.00 in/hr0.0 mm/hr 0.00 in0.0 mm
06:45 PM 37.8°F3.2°C 23.9°F-4.5°C 57% 0.6 mph SSW1.0 kmh SSW 3.8 mph6.1 kmh 30.12 in1020.0 mb 0.00 in0.0 mm 0.00 in/hr0.0 mm/hr 0.00 in0.0 mm
07:00 PM 37.8°F3.2°C 24.3°F-4.3°C 58% 1.1 mph W1.8 kmh W 4.5 mph7.2 kmh 30.13 in1020.3 mb 0.00 in0.0 mm 0.00 in/hr0.0 mm/hr 0.00 in0.0 mm
07:15 PM 37.8°F3.2°C 24.3°F-4.3°C 58% 0.9 mph N1.4 kmh N 3.1 mph5.0 kmh 30.14 in1020.7 mb 0.00 in0.0 mm 0.00 in/hr0.0 mm/hr 0.00 in0.0 mm
07:30 PM 37.6°F3.1°C 24.6°F-4.1°C 59% 1.1 mph SW1.8 kmh SW 6.0 mph9.7 kmh 30.13 in1020.3 mb 0.00 in0.0 mm 0.00 in/hr0.0 mm/hr 0.00 in0.0 mm
07:45 PM 37.4°F3.0°C 24.4°F-4.2°C 59% 0.6 mph NE1.0 kmh NE 3.1 mph5.0 kmh 30.14 in1020.7 mb 0.00 in0.0 mm 0.00 in/hr0.0 mm/hr 0.00 in0.0 mm
08:00 PM 37.4°F3.0°C 24.8°F-4.0°C 60% 0.6 mph E1.0 kmh E 3.1 mph5.0 kmh 30.14 in1020.7 mb 0.00 in0.0 mm 0.00 in/hr0.0 mm/hr 0.00 in0.0 mm
08:15 PM 37.4°F3.0°C 24.4°F-4.2°C 59% 2.4 mph NW3.9 kmh NW 6.9 mph11.1 kmh 30.14 in1020.7 mb 0.00 in0.0 mm 0.00 in/hr0.0 mm/hr 0.00 in0.0 mm
08:30 PM 37.4°F3.0°C 24.4°F-4.2°C 59% 0.4 mph WSW0.6 kmh WSW 4.5 mph7.2 kmh 30.15 in1021.0 mb 0.00 in0.0 mm 0.00 in/hr0.0 mm/hr 0.00 in0.0 mm
08:45 PM 37.2°F2.9°C 23.0°F-5.0°C 56% 1.8 mph ENE2.9 kmh ENE 6.9 mph11.1 kmh 30.16 in1021.3 mb 0.00 in0.0 mm 0.00 in/hr0.0 mm/hr 0.00 in0.0 mm
09:00 PM 36.7°F2.6°C 23.3°F-4.8°C 58% 1.2 mph NNE1.9 kmh NNE 4.5 mph7.2 kmh 30.16 in1021.3 mb 0.00 in0.0 mm 0.00 in/hr0.0 mm/hr 0.00 in0.0 mm
09:15 PM 36.1°F2.3°C 23.6°F-4.7°C 60% 1.7 mph NW2.7 kmh NW 6.0 mph9.7 kmh 30.16 in1021.3 mb 0.00 in0.0 mm 0.00 in/hr0.0 mm/hr 0.00 in0.0 mm
09:30 PM 35.6°F2.0°C 23.5°F-4.7°C 61% 3.0 mph N4.8 kmh N 7.6 mph12.2 kmh 30.16 in1021.3 mb 0.00 in0.0 mm 0.00 in/hr0.0 mm/hr 0.00 in0.0 mm
09:45 PM 35.1°F1.7°C 23.0°F-5.0°C 61% 2.1 mph N3.4 kmh N 9.2 mph14.8 kmh 30.16 in1021.3 mb 0.00 in0.0 mm 0.00 in/hr0.0 mm/hr 0.00 in0.0 mm
10:00 PM 34.3°F1.3°C 22.7°F-5.2°C 62% 1.9 mph NNE3.1 kmh NNE 9.2 mph14.8 kmh 30.17 in1021.7 mb 0.00 in0.0 mm 0.00 in/hr0.0 mm/hr 0.00 in0.0 mm
10:15 PM 33.6°F0.9°C 22.8°F-5.1°C 64% 2.5 mph NE4.0 kmh NE 7.6 mph12.2 kmh 30.17 in1021.7 mb 0.00 in0.0 mm 0.00 in/hr0.0 mm/hr 0.00 in0.0 mm
10:30 PM 32.9°F0.5°C 22.1°F-5.5°C 64% 0.7 mph N1.1 kmh N 6.0 mph9.7 kmh 30.16 in1021.3 mb 0.00 in0.0 mm 0.00 in/hr0.0 mm/hr 0.00 in0.0 mm
10:45 PM 32.4°F0.2°C 21.9°F-5.6°C 65% 0.3 mph N0.5 kmh N 2.2 mph3.5 kmh 30.17 in1021.7 mb 0.00 in0.0 mm 0.00 in/hr0.0 mm/hr 0.00 in0.0 mm
11:00 PM 31.3°F-0.4°C 21.3°F-5.9°C 66% 0.1 mph WNW0.2 kmh WNW 1.6 mph2.6 kmh 30.18 in1022.0 mb 0.00 in0.0 mm 0.00 in/hr0.0 mm/hr 0.00 in0.0 mm
11:15 PM 30.7°F-0.7°C 21.1°F-6.1°C 67% 0.6 mph NE1.0 kmh NE 4.5 mph7.2 kmh 30.18 in1022.0 mb 0.00 in0.0 mm 0.00 in/hr0.0 mm/hr 0.00 in0.0 mm
11:30 PM 30.6°F-0.8°C 21.6°F-5.8°C 69% 0.6 mph ENE1.0 kmh ENE 6.9 mph11.1 kmh 30.17 in1021.7 mb 0.00 in0.0 mm 0.00 in/hr0.0 mm/hr 0.00 in0.0 mm
11:45 PM 30.2°F-1.0°C 21.3°F-5.9°C 69% 0.3 mph NNE0.5 kmh NNE 5.4 mph8.7 kmh 30.18 in1022.0 mb 0.00 in0.0 mm 0.00 in/hr0.0 mm/hr 0.00 in0.0 mm